6VONE GOBD-GBYD
Flight info
| Callsign | 6VONE |
|---|---|
| Flight time | 0h 30m |
| Altitude | 15000 |
| Route | BIDAV1B BIDAV DCT VOKSI |
| Aircraft | A400/M-SDFGIRY/S |
Departure
| Time | 2026-05-09 00:07 |
|---|---|
| Airport | Blaise Diagne International Airport (GOBD) |
Arrival
| Time | 2026-05-09 00:37 |
|---|---|
| Airport | Banjul International Airport (GBYD) |
| Time | Latitude | Longitude | Altitude | Speed | Heading |
|---|---|---|---|---|---|
| 2026-05-08 23:22 | 14.67430 | -17.06879 | 301 ft | 0 kts | 180° |
| 2026-05-08 23:53 | 14.67429 | -17.06879 | 301 ft | 0 kts | 180° |
| 2026-05-08 23:55 | 14.67428 | -17.06879 | 301 ft | 0 kts | 180° |
| 2026-05-08 23:57 | 14.67427 | -17.06879 | 305 ft | 1 kts | 180° |
| 2026-05-08 23:57 | 14.67426 | -17.06879 | 305 ft | 0 kts | 180° |
| 2026-05-08 23:57 | 14.67425 | -17.06879 | 306 ft | 0 kts | 180° |
| 2026-05-08 23:58 | 14.67437 | -17.06879 | 304 ft | 2 kts | 180° |
| 2026-05-08 23:58 | 14.67436 | -17.06878 | 302 ft | 1 kts | 167° |
| 2026-05-08 23:58 | 14.67432 | -17.06874 | 301 ft | 1 kts | 145° |
| 2026-05-08 23:59 | 14.67452 | -17.06884 | 307 ft | 5 kts | 178° |
| 2026-05-08 23:59 | 14.67491 | -17.06885 | 302 ft | 6 kts | 185° |
| 2026-05-08 23:59 | 14.67534 | -17.06882 | 304 ft | 3 kts | 196° |
| 2026-05-08 23:59 | 14.67543 | -17.06876 | 305 ft | 5 kts | 240° |
| 2026-05-09 00:00 | 14.67549 | -17.06865 | 304 ft | 1 kts | 240° |
| 2026-05-09 00:00 | 14.67546 | -17.06870 | 305 ft | 3 kts | 240° |
| 2026-05-09 00:00 | 14.67536 | -17.06900 | 306 ft | 6 kts | 259° |
| 2026-05-09 00:00 | 14.67535 | -17.06953 | 301 ft | 9 kts | 270° |
| 2026-05-09 00:01 | 14.67535 | -17.07030 | 301 ft | 12 kts | 268° |
| 2026-05-09 00:01 | 14.67493 | -17.07095 | 304 ft | 12 kts | 196° |
| 2026-05-09 00:01 | 14.67408 | -17.07094 | 305 ft | 13 kts | 179° |
| 2026-05-09 00:01 | 14.67315 | -17.07092 | 304 ft | 14 kts | 179° |
| 2026-05-09 00:02 | 14.67216 | -17.07091 | 305 ft | 15 kts | 179° |
| 2026-05-09 00:02 | 14.67111 | -17.07090 | 308 ft | 16 kts | 179° |
| 2026-05-09 00:02 | 14.66993 | -17.07090 | 307 ft | 18 kts | 180° |
| 2026-05-09 00:02 | 14.66866 | -17.07089 | 305 ft | 18 kts | 179° |
| 2026-05-09 00:03 | 14.66738 | -17.07087 | 307 ft | 19 kts | 179° |
| 2026-05-09 00:03 | 14.66605 | -17.07085 | 304 ft | 20 kts | 179° |
| 2026-05-09 00:03 | 14.66463 | -17.07085 | 302 ft | 21 kts | 180° |
| 2026-05-09 00:03 | 14.66310 | -17.07084 | 305 ft | 23 kts | 180° |
| 2026-05-09 00:04 | 14.66151 | -17.07082 | 302 ft | 23 kts | 179° |
| 2026-05-09 00:04 | 14.65991 | -17.07081 | 296 ft | 23 kts | 180° |
| 2026-05-09 00:04 | 14.65831 | -17.07080 | 298 ft | 23 kts | 179° |
| 2026-05-09 00:04 | 14.65674 | -17.07078 | 296 ft | 16 kts | 180° |
| 2026-05-09 00:05 | 14.65620 | -17.07135 | 292 ft | 12 kts | 267° |
| 2026-05-09 00:05 | 14.65619 | -17.07196 | 292 ft | 10 kts | 269° |
| 2026-05-09 00:05 | 14.65642 | -17.07254 | 293 ft | 8 kts | 317° |
| 2026-05-09 00:05 | 14.65694 | -17.07268 | 291 ft | 8 kts | 359° |
| 2026-05-09 00:06 | 14.65725 | -17.07269 | 292 ft | 1 kts | 359° |
| 2026-05-09 00:06 | 14.65732 | -17.07269 | 292 ft | 0 kts | 359° |
| 2026-05-09 00:06 | 14.65737 | -17.07269 | 292 ft | 3 kts | 359° |
| 2026-05-09 00:06 | 14.65752 | -17.07269 | 292 ft | 11 kts | 359° |
| 2026-05-09 00:07 | 14.65794 | -17.07270 | 295 ft | 30 kts | 359° |
| 2026-05-09 00:07 | 14.66428 | -17.07281 | 307 ft | 148 kts | 359° |
| 2026-05-09 00:07 | 14.67617 | -17.07283 | 902 ft | 180 kts | 359° |
| 2026-05-09 00:07 | 14.68886 | -17.07295 | 2034 ft | 183 kts | 359° |
| 2026-05-09 00:08 | 14.70115 | -17.07307 | 3506 ft | 171 kts | 359° |
| 2026-05-09 00:08 | 14.71340 | -17.07320 | 4652 ft | 192 kts | 359° |
| 2026-05-09 00:08 | 14.72841 | -17.07337 | 5365 ft | 231 kts | 359° |
| 2026-05-09 00:08 | 14.74530 | -17.07354 | 6185 ft | 254 kts | 359° |
| 2026-05-09 00:09 | 14.76357 | -17.07370 | 7185 ft | 269 kts | 360° |
| 2026-05-09 00:09 | 14.78213 | -17.07190 | 8338 ft | 276 kts | 12° |
| 2026-05-09 00:09 | 14.80005 | -17.06428 | 9250 ft | 283 kts | 32° |
| 2026-05-09 00:09 | 14.81429 | -17.05009 | 9805 ft | 288 kts | 55° |
| 2026-05-09 00:10 | 14.82229 | -17.03113 | 9985 ft | 291 kts | 77° |
| 2026-05-09 00:10 | 14.82418 | -17.01024 | 10000 ft | 295 kts | 89° |
| 2026-05-09 00:10 | 14.82421 | -16.98873 | 10149 ft | 307 kts | 90° |
| 2026-05-09 00:10 | 14.82403 | -16.96603 | 10688 ft | 322 kts | 90° |
| 2026-05-09 00:11 | 14.82397 | -16.94310 | 10961 ft | 314 kts | 90° |
| 2026-05-09 00:11 | 14.82395 | -16.92073 | 11004 ft | 309 kts | 91° |
| 2026-05-09 00:11 | 14.82050 | -16.89889 | 11091 ft | 311 kts | 110° |
| 2026-05-09 00:11 | 14.80828 | -16.88014 | 11765 ft | 322 kts | 137° |
| 2026-05-09 00:12 | 14.78897 | -16.86883 | 12500 ft | 318 kts | 164° |
| 2026-05-09 00:12 | 14.76719 | -16.86596 | 12907 ft | 315 kts | 178° |
| 2026-05-09 00:12 | 14.74528 | -16.86579 | 12995 ft | 315 kts | 181° |
| 2026-05-09 00:12 | 14.72338 | -16.86602 | 13000 ft | 314 kts | 181° |
| 2026-05-09 00:13 | 14.70150 | -16.86616 | 13001 ft | 314 kts | 180° |
| 2026-05-09 00:13 | 14.67968 | -16.86616 | 13001 ft | 314 kts | 180° |
| 2026-05-09 00:13 | 14.65809 | -16.86608 | 13001 ft | 314 kts | 180° |
| 2026-05-09 00:13 | 14.63628 | -16.86594 | 13001 ft | 314 kts | 180° |
| 2026-05-09 00:14 | 14.61440 | -16.86577 | 13000 ft | 314 kts | 180° |
| 2026-05-09 00:14 | 14.59248 | -16.86558 | 12999 ft | 314 kts | 180° |
| 2026-05-09 00:14 | 14.57064 | -16.86539 | 13001 ft | 314 kts | 180° |
| 2026-05-09 00:14 | 14.54884 | -16.86519 | 13001 ft | 314 kts | 180° |
| 2026-05-09 00:15 | 14.52699 | -16.86499 | 13000 ft | 314 kts | 180° |
| 2026-05-09 00:15 | 14.50517 | -16.86479 | 13001 ft | 314 kts | 180° |
| 2026-05-09 00:15 | 14.48370 | -16.86458 | 13002 ft | 314 kts | 180° |
| 2026-05-09 00:15 | 14.46183 | -16.86438 | 12995 ft | 314 kts | 180° |
| 2026-05-09 00:16 | 14.43993 | -16.86417 | 13001 ft | 314 kts | 180° |
| 2026-05-09 00:16 | 14.41811 | -16.86397 | 13001 ft | 314 kts | 180° |
| 2026-05-09 00:16 | 14.39629 | -16.86377 | 13000 ft | 314 kts | 180° |
| 2026-05-09 00:16 | 14.37475 | -16.86356 | 13000 ft | 314 kts | 180° |
| 2026-05-09 00:17 | 14.35287 | -16.86336 | 13001 ft | 314 kts | 180° |
| 2026-05-09 00:17 | 14.33104 | -16.86315 | 12999 ft | 314 kts | 180° |
| 2026-05-09 00:17 | 14.30918 | -16.86294 | 12997 ft | 314 kts | 180° |
| 2026-05-09 00:17 | 14.28734 | -16.86273 | 13001 ft | 314 kts | 180° |
| 2026-05-09 00:18 | 14.26552 | -16.86252 | 12999 ft | 314 kts | 180° |
| 2026-05-09 00:18 | 14.24367 | -16.86231 | 13001 ft | 314 kts | 180° |
| 2026-05-09 00:18 | 14.22180 | -16.86210 | 13000 ft | 315 kts | 180° |
| 2026-05-09 00:18 | 14.19991 | -16.86189 | 12996 ft | 314 kts | 180° |
| 2026-05-09 00:19 | 14.17805 | -16.86168 | 13000 ft | 314 kts | 180° |
| 2026-05-09 00:19 | 14.15619 | -16.86147 | 13000 ft | 314 kts | 180° |
| 2026-05-09 00:19 | 14.13463 | -16.86127 | 13001 ft | 314 kts | 180° |
| 2026-05-09 00:19 | 14.11252 | -16.86106 | 12999 ft | 314 kts | 180° |
| 2026-05-09 00:20 | 14.09094 | -16.86085 | 13001 ft | 314 kts | 180° |
| 2026-05-09 00:20 | 14.06914 | -16.86064 | 13000 ft | 314 kts | 180° |
| 2026-05-09 00:20 | 14.04728 | -16.86043 | 13001 ft | 314 kts | 180° |
| 2026-05-09 00:20 | 14.02543 | -16.85985 | 13000 ft | 314 kts | 175° |
| 2026-05-09 00:21 | 14.00395 | -16.85568 | 12998 ft | 314 kts | 166° |
| 2026-05-09 00:21 | 13.98288 | -16.84970 | 12997 ft | 314 kts | 164° |
| 2026-05-09 00:21 | 13.96188 | -16.84338 | 13002 ft | 314 kts | 164° |
| 2026-05-09 00:21 | 13.94086 | -16.83703 | 13000 ft | 314 kts | 164° |
| 2026-05-09 00:22 | 13.91989 | -16.83074 | 13001 ft | 314 kts | 164° |
| 2026-05-09 00:22 | 13.89888 | -16.82446 | 12997 ft | 314 kts | 164° |
| 2026-05-09 00:22 | 13.87787 | -16.81819 | 12997 ft | 314 kts | 164° |
| 2026-05-09 00:22 | 13.85684 | -16.81193 | 12997 ft | 314 kts | 164° |
| 2026-05-09 00:23 | 13.83582 | -16.80568 | 12997 ft | 314 kts | 164° |
| 2026-05-09 00:23 | 13.81516 | -16.79925 | 12999 ft | 314 kts | 160° |
| 2026-05-09 00:23 | 13.79537 | -16.78962 | 13001 ft | 315 kts | 152° |
| 2026-05-09 00:23 | 13.77651 | -16.77809 | 12933 ft | 316 kts | 147° |
| 2026-05-09 00:24 | 13.75830 | -16.76559 | 12699 ft | 314 kts | 146° |
| 2026-05-09 00:24 | 13.74063 | -16.75313 | 12452 ft | 313 kts | 146° |
| 2026-05-09 00:24 | 13.72273 | -16.74044 | 12204 ft | 312 kts | 146° |
| 2026-05-09 00:24 | 13.70487 | -16.72779 | 11950 ft | 311 kts | 146° |
| 2026-05-09 00:25 | 13.68707 | -16.71521 | 11696 ft | 310 kts | 146° |
| 2026-05-09 00:25 | 13.66934 | -16.70268 | 11453 ft | 308 kts | 146° |
| 2026-05-09 00:25 | 13.65169 | -16.69021 | 11198 ft | 307 kts | 146° |
| 2026-05-09 00:25 | 13.63429 | -16.67793 | 10970 ft | 306 kts | 146° |
| 2026-05-09 00:26 | 13.61675 | -16.66556 | 10619 ft | 305 kts | 146° |
| 2026-05-09 00:26 | 13.59931 | -16.65325 | 10196 ft | 303 kts | 146° |
| 2026-05-09 00:26 | 13.58220 | -16.64119 | 9990 ft | 289 kts | 146° |
| 2026-05-09 00:26 | 13.56576 | -16.62959 | 9654 ft | 288 kts | 146° |
| 2026-05-09 00:27 | 13.54925 | -16.61795 | 9233 ft | 287 kts | 146° |
| 2026-05-09 00:27 | 13.53281 | -16.60637 | 8832 ft | 286 kts | 146° |
| 2026-05-09 00:27 | 13.51645 | -16.59484 | 8451 ft | 284 kts | 146° |
| 2026-05-09 00:27 | 13.50568 | -16.58725 | 8193 ft | 283 kts | 146° |
| 2026-05-09 00:28 | 13.48947 | -16.57582 | 7810 ft | 282 kts | 146° |
| 2026-05-09 00:28 | 13.47340 | -16.56450 | 7416 ft | 280 kts | 146° |
| 2026-05-09 00:28 | 13.45730 | -16.55317 | 7036 ft | 278 kts | 146° |
| 2026-05-09 00:28 | 13.44138 | -16.54195 | 6649 ft | 277 kts | 146° |
| 2026-05-09 00:29 | 13.42550 | -16.53078 | 6260 ft | 275 kts | 146° |
| 2026-05-09 00:29 | 13.40975 | -16.51968 | 5878 ft | 274 kts | 146° |
| 2026-05-09 00:29 | 13.39409 | -16.50866 | 5488 ft | 272 kts | 146° |
| 2026-05-09 00:29 | 13.37853 | -16.49771 | 5102 ft | 271 kts | 146° |
| 2026-05-09 00:30 | 13.36322 | -16.48694 | 4719 ft | 269 kts | 146° |
| 2026-05-09 00:30 | 13.34782 | -16.47611 | 4342 ft | 268 kts | 146° |
| 2026-05-09 00:30 | 13.33248 | -16.46532 | 3994 ft | 265 kts | 146° |
| 2026-05-09 00:30 | 13.31774 | -16.45495 | 3911 ft | 248 kts | 146° |
| 2026-05-09 00:31 | 13.30343 | -16.44540 | 3735 ft | 245 kts | 152° |
| 2026-05-09 00:31 | 13.28718 | -16.44071 | 3336 ft | 244 kts | 179° |
| 2026-05-09 00:31 | 13.27100 | -16.44497 | 2996 ft | 241 kts | 210° |
| 2026-05-09 00:31 | 13.25749 | -16.45498 | 2685 ft | 239 kts | 220° |
| 2026-05-09 00:32 | 13.24496 | -16.46605 | 2379 ft | 237 kts | 221° |
| 2026-05-09 00:32 | 13.23304 | -16.47717 | 2106 ft | 235 kts | 226° |
| 2026-05-09 00:32 | 13.22414 | -16.49108 | 2016 ft | 230 kts | 249° |
| 2026-05-09 00:32 | 13.22187 | -16.50620 | 1932 ft | 208 kts | 275° |
| 2026-05-09 00:33 | 13.22658 | -16.51953 | 1816 ft | 194 kts | 307° |
| 2026-05-09 00:33 | 13.23470 | -16.53007 | 1777 ft | 185 kts | 307° |
| 2026-05-09 00:33 | 13.24240 | -16.54044 | 1785 ft | 177 kts | 307° |
| 2026-05-09 00:33 | 13.24978 | -16.54985 | 1763 ft | 163 kts | 310° |
| 2026-05-09 00:34 | 13.25696 | -16.55867 | 1599 ft | 159 kts | 309° |
| 2026-05-09 00:34 | 13.26402 | -16.56699 | 1515 ft | 149 kts | 311° |
| 2026-05-09 00:34 | 13.27061 | -16.57442 | 1480 ft | 131 kts | 312° |
| 2026-05-09 00:34 | 13.27669 | -16.58093 | 1411 ft | 124 kts | 316° |
| 2026-05-09 00:35 | 13.28276 | -16.58708 | 1320 ft | 121 kts | 314° |
| 2026-05-09 00:35 | 13.28862 | -16.59329 | 1245 ft | 122 kts | 313° |
| 2026-05-09 00:35 | 13.29429 | -16.59980 | 1078 ft | 122 kts | 307° |
| 2026-05-09 00:35 | 13.29954 | -16.60662 | 909 ft | 122 kts | 308° |
| 2026-05-09 00:36 | 13.30487 | -16.61332 | 737 ft | 122 kts | 309° |
| 2026-05-09 00:36 | 13.31040 | -16.61985 | 597 ft | 121 kts | 311° |
| 2026-05-09 00:36 | 13.31600 | -16.62628 | 419 ft | 121 kts | 310° |
| 2026-05-09 00:36 | 13.32148 | -16.63281 | 295 ft | 121 kts | 310° |
| 2026-05-09 00:37 | 13.32693 | -16.63937 | 135 ft | 119 kts | 310° |
| 2026-05-09 00:37 | 13.33192 | -16.64526 | 103 ft | 80 kts | 310° |
| 2026-05-09 00:37 | 13.33381 | -16.64749 | 101 ft | 3 kts | 310° |
| 2026-05-09 00:37 | 13.33456 | -16.64839 | 105 ft | 39 kts | 311° |
| 2026-05-09 00:38 | 13.33706 | -16.65132 | 106 ft | 48 kts | 310° |
| 2026-05-09 00:38 | 13.33834 | -16.65268 | 105 ft | 11 kts | 349° |
| 2026-05-09 00:38 | 13.33885 | -16.65244 | 106 ft | 7 kts | 41° |
| 2026-05-09 00:38 | 13.33930 | -16.65203 | 107 ft | 10 kts | 41° |
| 2026-05-09 00:39 | 13.33977 | -16.65190 | 108 ft | 5 kts | 340° |
| 2026-05-09 00:39 | 13.34005 | -16.65217 | 107 ft | 7 kts | 314° |
| 2026-05-09 00:39 | 13.34048 | -16.65262 | 108 ft | 10 kts | 314° |
| 2026-05-09 00:39 | 13.34100 | -16.65262 | 107 ft | 7 kts | 24° |
| 2026-05-09 00:40 | 13.34113 | -16.65242 | 108 ft | 2 kts | 111° |
| 2026-05-09 00:40 | 13.34079 | -16.65198 | 107 ft | 0 kts | 129° |